Terminal Aerodrome Forecast
Issued by NWS

Home | Current Version | Previous Version | Text Only | Print | Product List | Glossary On
Versions: 1 2 3 4 5 6 7 8 9 10 11 12 13 14 15 16
553
FTUS46 KSGX 091120
TAFONT
TAF
KONT 091120Z 0912/1018 VRB05KT P6SM SKC WS020/06025KT
     FM091600 04008KT P6SM SKC
     FM092000 VRB06KT P6SM SKC=

USA.gov is the U.S. government's official web portal to all federal, state and local government web resources and services.